Chance, Maryland
Current Conditions -  °F | °C
As of 7:54 AM on Thursday 30 Oct 2014 (Local Time) from KSBY Reporting Station
Light Fog Light Fog  
Wind Chill: 48°   Ceiling: Unl
Heat Index: 48°   Visibility: 5mi
Dew Point: 45°   Wind: 0mph
Humidity: 89%   Direction: NA
Pressure: 30.01"   Gusts: NA
Location:  38.17°N, 75.94°W
Report Text: KSBY 301154Z 00000KT 5SM MIFG SCT007 09/07 A3001 RMK AO2 SLP165 T00890072 10122 20089 53009
Loading
Personal Weather Stations






























Interactive Weather Map
Tropical Storm Tracking
New forecast layout! Learn more

10-Day Weather Forecast

Advertisements
Track Severe Weather on mobile